Time;durP1;ratioP1;P1;durP2;ratioP2;P2;SDS_P1;SDS_P2;PMS_P1;PMS_P2;Temp;Humidity;BMP_temperature;BMP_pressure;BME280_temperature;BME280_humidity;BME280_pressure;Samples;Min_cycle;Max_cycle;Signal;HPM_P1;HPM_P2
2024/04/18 00:00:45;;;;;;;3.10;2.50;;;;;;;6.47;76.81;94972.06;6156349;23;20175;-86
2024/04/18 00:03:13;;;;;;;2.80;2.50;;;;;;;6.47;76.83;94969.50;6155845;23;20206;-86
2024/04/18 00:06:26;;;;;;;;;;;;;;;;;;;;;
2024/04/18 00:09:13;;;;;;;3.20;2.70;;;;;;;6.46;76.26;94950.03;6148272;23;20266;-86
2024/04/18 00:12:10;;;;;;;3.70;2.57;;;;;;;6.43;75.72;94929.88;6156557;23;20178;-86
2024/04/18 00:15:14;;;;;;;;;;;;;;;;;;;;;
2024/04/18 00:18:05;;;;;;;3.03;2.60;;;;;;;6.36;75.85;94938.38;6157032;23;20167;-86
2024/04/18 00:21:08;;;;;;;;;;;;;;;;;;;;;
2024/04/18 00:23:50;;;;;;;3.67;2.80;;;;;;;6.34;76.39;94946.25;6157769;23;20174;-86
2024/04/18 00:27:03;;;;;;;3.07;2.73;;;;;;;6.34;76.44;94953.13;6155793;23;20191;-86
2024/04/18 00:29:59;;;;;;;3.53;2.60;;;;;;;6.25;76.70;94962.56;6156042;23;20195;-87
2024/04/18 00:32:27;;;;;;;3.07;2.50;;;;;;;6.19;77.14;94968.31;6157376;23;20159;-86
2024/04/18 00:35:09;;;;;;;3.47;2.73;;;;;;;6.20;77.05;94968.16;6153569;23;20305;-87
2024/04/18 00:40:34;;;;;;;3.30;2.70;;;;;;;6.24;77.53;94986.53;6155172;23;20241;-87
2024/04/18 00:43:20;;;;;;;3.40;2.83;;;;;;;6.20;77.03;94967.38;6154359;23;20179;-85
2024/04/18 00:48:55;;;;;;;2.80;2.60;;;;;;;6.21;77.03;94971.50;6116649;23;20175;-87
2024/04/18 00:51:30;;;;;;;2.93;2.63;;;;;;;6.17;77.25;94976.16;6155858;23;20159;-87
2024/04/18 00:54:32;;;;;;;4.20;2.50;;;;;;;6.18;77.55;94972.63;6156843;23;20166;-87
2024/04/18 00:57:13;;;;;;;3.00;2.63;;;;;;;6.15;77.76;94985.78;6156402;23;20355;-88
2024/04/18 00:59:54;;;;;;;2.70;2.50;;;;;;;6.14;78.65;95009.72;6156278;23;20221;-86
2024/04/18 01:02:33;;;;;;;3.10;2.80;;;;;;;6.15;78.41;95008.78;6156965;23;20159;-87
2024/04/18 01:05:12;;;;;;;3.37;2.50;;;;;;;6.18;78.69;95016.09;6156719;23;20194;-89
2024/04/18 01:11:55;;;;;;;4.53;3.00;;;;;;;6.19;78.53;95017.69;6154335;23;20178;-87
2024/04/18 01:15:13;;;;;;;3.33;2.73;;;;;;;6.25;78.90;95026.47;6157680;23;20236;-89
2024/04/18 01:18:29;;;;;;;;;;;;;;;;;;;;;
2024/04/18 01:27:31;;;;;;;4.07;2.60;;;;;;;6.26;78.69;95027.25;6148961;23;20206;-87
2024/04/18 01:32:03;;;;;;;3.00;2.67;;;;;;;6.23;78.61;95026.63;6160032;23;20642;-87
2024/04/18 01:47:44;;;;;;;;;;;;;;;;;;;;;
2024/04/18 01:53:32;;;;;;;3.33;2.80;;;;;;;6.15;79.64;95046.31;6137095;23;20710;-89
2024/04/18 01:56:18;;;;;;;3.93;3.03;;;;;;;6.14;80.31;95060.03;6157750;23;20241;-87
2024/04/18 02:05:44;;;;;;;;;;;;;;;;;;;;;
2024/04/18 02:08:40;;;;;;;3.10;2.80;;;;;;;6.31;80.91;95082.06;6157603;23;20182;-88
2024/04/18 02:11:46;;;;;;;3.30;3.00;;;;;;;6.29;80.95;95091.66;6156865;23;20178;-88
2024/04/18 02:14:56;;;;;;;3.30;3.00;;;;;;;6.30;80.67;95077.91;6037467;23;20181;-87
2024/04/18 02:18:04;;;;;;;3.43;3.13;;;;;;;6.33;80.79;95077.59;6158048;23;20159;-86
2024/04/18 02:21:15;;;;;;;5.57;3.20;;;;;;;6.31;81.03;95082.06;6091759;23;20194;-86
2024/04/18 02:24:38;;;;;;;;;;;;;;;;;;;;;
2024/04/18 02:30:56;;;;;;;;;;;;;;;;;;;;;
2024/04/18 02:37:10;;;;;;;3.93;3.23;;;;;;;6.29;81.77;95111.31;6044635;23;20262;-88
2024/04/18 02:46:54;;;;;;;;;;;;;;;;;;;;;
2024/04/18 03:03:44;;;;;;;4.03;3.63;;;;;;;6.15;84.62;95174.91;6132153;23;20190;-87
2024/04/18 03:09:55;;;;;;;5.07;4.27;;;;;;;6.19;84.15;95157.47;6126037;23;20229;-86
2024/04/18 03:19:50;;;;;;;4.87;4.37;;;;;;;6.21;84.61;95166.56;5980147;23;20183;-86
2024/04/18 03:29:08;;;;;;;4.73;4.23;;;;;;;6.15;84.68;95167.22;5943867;23;20808;-87
2024/04/18 03:51:31;;;;;;;5.33;4.37;;;;;;;6.10;85.82;95189.91;5791231;24;20218;-87
2024/04/18 03:54:00;;;;;;;5.33;4.80;;;;;;;6.13;86.08;95204.13;5812480;24;20219;-86
2024/04/18 03:56:31;;;;;;;5.50;5.00;;;;;;;6.17;86.09;95202.81;5974264;24;20518;-86
2024/04/18 03:59:10;;;;;;;;;;;;;;;;;;;;;
2024/04/18 04:01:46;;;;;;;4.90;4.50;;;;;;;6.08;86.41;95212.25;6127141;23;20215;-86
2024/04/18 04:04:11;;;;;;;5.33;4.57;;;;;;;6.07;86.53;95214.97;6128505;23;20179;-86
2024/04/18 04:07:21;;;;;;;4.63;4.23;;;;;;;6.14;86.83;95226.97;6127961;23;20310;-86
2024/04/18 04:09:59;;;;;;;5.53;4.77;;;;;;;6.22;86.16;95215.94;6103755;23;20274;-88
2024/04/18 04:12:37;;;;;;;5.60;5.10;;;;;;;6.18;86.76;95227.44;6129362;23;20215;-87
2024/04/18 04:15:08;;;;;;;5.30;4.80;;;;;;;6.23;86.29;95214.97;6129047;23;20206;-87
2024/04/18 04:17:44;;;;;;;5.53;4.97;;;;;;;6.25;85.63;95210.50;6126802;23;20209;-89
2024/04/18 04:20:09;;;;;;;4.93;4.50;;;;;;;6.29;85.58;95216.91;6129075;23;20250;-86
2024/04/18 04:22:41;;;;;;;5.23;4.73;;;;;;;6.27;85.93;95223.94;6128561;23;20186;-87
2024/04/18 04:25:07;;;;;;;5.67;5.07;;;;;;;6.27;86.22;95231.59;6127993;23;20199;-86
2024/04/18 04:27:34;;;;;;;5.63;5.13;;;;;;;6.27;87.12;95248.69;6128562;23;20230;-87
2024/04/18 04:30:46;;;;;;;5.57;5.07;;;;;;;6.23;87.29;95243.09;6135620;23;20251;-86
2024/04/18 04:33:16;;;;;;;5.93;5.33;;;;;;;6.30;86.49;95240.72;6141817;23;20793;-86
2024/04/18 04:35:49;;;;;;;5.80;5.00;;;;;;;6.32;86.10;95226.81;6130846;23;20199;-89
2024/04/18 04:38:20;;;;;;;5.73;5.23;;;;;;;6.32;85.67;95226.81;6131620;23;20160;-87
2024/04/18 04:41:07;;;;;;;5.43;4.90;;;;;;;6.30;86.27;95238.97;6157730;23;20598;-87
2024/04/18 04:43:32;;;;;;;5.70;5.20;;;;;;;6.32;86.27;95249.84;6160841;23;20276;-87
2024/04/18 04:46:22;;;;;;;5.63;5.13;;;;;;;6.29;87.10;95264.69;6160288;23;20203;-86
2024/04/18 04:48:59;;;;;;;6.47;5.57;;;;;;;6.30;86.69;95261.97;6161667;23;20182;-87
2024/04/18 04:51:43;;;;;;;5.77;5.27;;;;;;;6.34;86.62;95262.47;6159779;23;20182;-87
2024/04/18 04:54:48;;;;;;;;;;;;;;;;;;;;;
2024/04/18 04:57:46;;;;;;;;;;;;;;;;;;;;;
2024/04/18 05:00:37;;;;;;;6.10;5.50;;;;;;;6.33;88.01;95302.56;6158974;23;20193;-87
2024/04/18 05:03:10;;;;;;;6.03;5.53;;;;;;;6.31;88.33;95299.38;6158112;23;20191;-88
2024/04/18 05:05:48;;;;;;;5.73;5.13;;;;;;;6.33;88.50;95301.75;6160215;23;20210;-87
2024/04/18 05:08:59;;;;;;;5.77;5.17;;;;;;;6.39;86.81;95284.03;6159537;23;20225;-88
2024/04/18 05:12:04;;;;;;;5.60;5.10;;;;;;;6.33;88.00;95301.75;6148918;23;20554;-87
2024/04/18 05:18:21;;;;;;;5.03;4.40;;;;;;;6.38;86.62;95279.06;6137031;23;20195;-87
2024/04/18 05:24:09;;;;;;;5.63;5.13;;;;;;;6.42;87.60;95309.28;6158360;23;20185;-88
2024/04/18 05:26:43;;;;;;;5.40;4.90;;;;;;;6.45;88.65;95331.19;6157749;23;20210;-86
2024/04/18 05:32:07;;;;;;;5.43;4.87;;;;;;;6.42;87.92;95326.38;6096731;23;20283;-87
2024/04/18 05:34:53;;;;;;;5.13;4.70;;;;;;;6.38;87.72;95313.09;6156616;23;20254;-87
2024/04/18 05:37:23;;;;;;;8.10;5.30;;;;;;;6.35;89.90;95353.53;6158261;23;20167;-86
2024/04/18 05:40:30;;;;;;;7.77;4.73;;;;;;;6.31;89.48;95352.25;6157655;23;20643;-87
2024/04/18 05:44:05;;;;;;;4.27;3.87;;;;;;;6.18;89.30;95348.34;6158320;23;20155;-87
2024/04/18 05:46:39;;;;;;;13.27;11.07;;;;;;;6.09;87.24;95321.19;6158642;23;20683;-89
2024/04/18 05:56:42;;;;;;;3.67;3.07;;;;;;;5.83;85.62;95300.78;6034373;23;20268;-87
2024/04/18 06:03:10;;;;;;;;;;;;;;;;;;;;;
2024/04/18 06:06:16;;;;;;;3.20;2.90;;;;;;;5.76;84.15;95274.28;6144694;23;20195;-85
2024/04/18 06:12:18;;;;;;;24.30;20.13;;;;;;;5.73;82.81;95249.03;6151311;23;20195;-86
2024/04/18 06:18:08;;;;;;;3.20;2.90;;;;;;;5.66;81.38;95214.84;6152671;23;20276;-87
2024/04/18 06:20:55;;;;;;;3.23;2.97;;;;;;;5.63;81.50;95220.25;6158111;23;20186;-87
2024/04/18 06:24:03;;;;;;;3.00;2.80;;;;;;;5.65;81.58;95231.13;6158978;23;20199;-87
2024/04/18 06:27:16;;;;;;;2.90;2.70;;;;;;;5.65;82.30;95251.53;6156540;23;20245;-87
2024/04/18 06:33:13;;;;;;;3.00;2.80;;;;;;;5.66;81.38;95229.38;6155053;23;20190;-87
2024/04/18 06:36:30;;;;;;;3.23;3.03;;;;;;;5.61;81.18;95232.38;6158692;23;20194;-87
2024/04/18 06:39:07;;;;;;;3.07;2.87;;;;;;;5.57;81.59;95245.63;6158129;23;20242;-87
2024/04/18 06:41:49;;;;;;;24.40;20.27;;;;;;;5.53;81.24;95245.13;6159328;23;20526;-87
2024/04/18 06:44:48;;;;;;;16.83;13.77;;;;;;;5.50;82.88;95284.53;6144466;23;20183;-86
2024/04/18 06:47:19;;;;;;;5.40;4.90;;;;;;;5.57;82.52;95271.97;6158423;23;20159;-86
2024/04/18 06:52:49;;;;;;;3.97;3.67;;;;;;;5.65;82.19;95277.09;6126385;23;20202;-86
2024/04/18 06:55:36;;;;;;;3.00;2.80;;;;;;;5.68;81.82;95266.56;6156571;23;20202;-87
2024/04/18 06:58:14;;;;;;;3.53;3.17;;;;;;;5.70;81.33;95269.78;6153937;23;20183;-89
2024/04/18 07:00:44;;;;;;;3.67;3.30;;;;;;;5.73;81.58;95272.03;6159089;23;20159;-87
2024/04/18 07:03:15;;;;;;;3.07;2.87;;;;;;;5.75;81.35;95264.22;6156010;23;20182;-88
2024/04/18 07:05:49;;;;;;;3.50;3.20;;;;;;;5.79;81.03;95262.91;6157793;23;20573;-87
2024/04/18 07:08:40;;;;;;;;;;;;;;;;;;;;;
2024/04/18 07:11:20;;;;;;;4.50;3.57;;;;;;;5.86;81.24;95267.28;6159364;23;20251;-87
2024/04/18 07:17:11;;;;;;;4.17;3.77;;;;;;;5.89;80.92;95268.75;6112320;23;20257;-89
2024/04/18 07:22:35;;;;;;;31.00;25.27;;;;;;;5.91;83.14;95325.59;6155167;23;20182;-87
2024/04/18 07:25:21;;;;;;;19.13;17.03;;;;;;;5.97;83.45;95339.50;6157388;23;20209;-88
2024/04/18 07:27:49;;;;;;;5.43;4.93;;;;;;;6.03;82.26;95310.78;6156270;23;20175;-87
2024/04/18 07:30:16;;;;;;;4.10;3.80;;;;;;;6.05;82.30;95319.09;6157945;23;20234;-86
2024/04/18 07:32:54;;;;;;;4.40;4.00;;;;;;;6.06;81.68;95313.03;6158931;23;20203;-86
2024/04/18 07:35:33;;;;;;;4.30;3.90;;;;;;;6.15;82.29;95330.81;6157838;23;20742;-86
2024/04/18 07:38:10;;;;;;;4.70;4.30;;;;;;;6.24;82.31;95339.28;6157581;23;20174;-89
2024/04/18 07:40:42;;;;;;;4.50;4.10;;;;;;;6.32;83.41;95358.97;6157136;23;20214;-86
2024/04/18 07:43:16;;;;;;;4.80;4.40;;;;;;;6.42;83.70;95372.41;6158765;23;20166;-87
2024/04/18 07:45:45;;;;;;;4.57;4.20;;;;;;;6.51;83.66;95382.50;6159597;23;20195;-85
2024/04/18 07:48:32;;;;;;;;;;;;;;;;;;;;;
2024/04/18 07:51:23;;;;;;;7.40;4.40;;;;;;;6.65;86.12;95434.81;6160199;23;20230;-86
2024/04/18 07:54:07;;;;;;;;;;;;;;;;;;;;;
2024/04/18 07:57:14;;;;;;;5.60;5.10;;;;;;;6.88;84.99;95412.81;6156314;23;20222;-86
2024/04/18 08:06:51;;;;;;;5.80;5.30;;;;;;;7.74;82.37;95380.75;6113213;23;20257;-87
2024/04/18 08:09:35;;;;;;;5.70;5.20;;;;;;;8.06;81.94;95357.59;6154061;23;20179;-90
2024/04/18 08:15:49;;;;;;;13.23;11.67;;;;;;;8.54;86.28;95473.81;6157538;23;20199;-87
2024/04/18 08:18:33;;;;;;;7.40;6.70;;;;;;;8.66;82.34;95386.00;6156783;23;20210;-88
2024/04/18 08:27:41;;;;;;;5.83;5.33;;;;;;;8.15;81.55;95363.47;6155272;23;20484;-87
2024/04/18 08:30:42;;;;;;;6.20;5.67;;;;;;;8.24;82.86;95383.00;6124392;23;20275;-86
2024/04/18 08:33:40;;;;;;;5.13;4.63;;;;;;;8.30;80.69;95352.34;6099811;23;20638;-85
2024/04/18 08:36:14;;;;;;;5.07;4.57;;;;;;;8.55;81.53;95383.03;6149389;23;20254;-87
2024/04/18 08:38:51;;;;;;;5.37;4.87;;;;;;;8.63;83.41;95424.06;6156264;23;20218;-87
2024/04/18 08:44:55;;;;;;;5.30;4.90;;;;;;;9.53;78.20;95311.97;6123734;23;20542;-86
2024/04/18 08:47:43;;;;;;;19.83;17.73;;;;;;;9.42;78.44;95320.13;6155830;23;20163;-88
2024/04/18 08:50:31;;;;;;;10.70;9.60;;;;;;;9.16;77.70;95294.03;6157818;23;20167;-86
2024/04/18 08:53:13;;;;;;;5.30;4.90;;;;;;;9.02;79.58;95346.16;6144754;23;20594;-87
2024/04/18 08:56:10;;;;;;;5.27;4.77;;;;;;;8.85;81.73;95395.03;6154254;23;20662;-87
2024/04/18 08:58:54;;;;;;;4.53;4.20;;;;;;;9.12;79.64;95350.06;6157064;23;20241;-88
2024/04/18 09:01:39;;;;;;;4.20;3.87;;;;;;;9.47;79.77;95370.97;6157273;23;20167;-88
2024/04/18 09:04:17;;;;;;;4.30;4.00;;;;;;;9.33;79.64;95355.34;6157307;23;20655;-87
2024/04/18 09:07:04;;;;;;;4.70;4.30;;;;;;;9.12;77.25;95292.78;6155976;23;20206;-86
2024/04/18 09:09:46;;;;;;;4.50;4.13;;;;;;;9.33;79.27;95359.69;6158851;23;20174;-88
2024/04/18 09:12:30;;;;;;;4.17;3.87;;;;;;;9.16;76.47;95283.75;6131817;23;20277;-87
2024/04/18 09:15:23;;;;;;;4.20;3.90;;;;;;;9.03;78.49;95335.72;6159689;23;20254;-87
2024/04/18 09:18:12;;;;;;;4.67;4.27;;;;;;;8.83;80.18;95373.88;6093321;23;20202;-86
2024/04/18 09:20:39;;;;;;;6.17;4.90;;;;;;;8.75;80.21;95378.25;6159115;23;20163;-86
2024/04/18 09:26:36;;;;;;;4.30;3.90;;;;;;;10.06;75.79;95292.06;6118836;23;20214;-87
2024/04/18 09:29:10;;;;;;;11.87;10.27;;;;;;;10.76;72.76;95208.25;6158254;23;20182;-87
2024/04/18 09:31:46;;;;;;;14.57;13.07;;;;;;;11.30;69.94;95121.59;6159253;23;20242;-87
2024/04/18 09:38:01;;;;;;;4.37;4.00;;;;;;;11.59;66.63;94972.72;6115298;23;20242;-86
2024/04/18 09:40:56;;;;;;;4.03;3.73;;;;;;;11.07;66.57;94933.81;6129812;23;20163;-88
2024/04/18 09:44:00;;;;;;;4.30;3.90;;;;;;;10.64;66.17;94940.22;6128386;23;20187;-86
2024/04/18 09:46:50;;;;;;;4.63;4.23;;;;;;;10.76;68.24;95028.81;6128198;23;20198;-87
2024/04/18 09:49:30;;;;;;;3.23;3.03;;;;;;;11.23;64.16;94888.84;6128679;23;20231;-87
2024/04/18 09:55:09;;;;;;;3.50;3.20;;;;;;;10.92;64.21;94853.34;6126698;23;20202;-86
2024/04/18 09:57:59;;;;;;;3.77;3.07;;;;;;;10.42;65.90;94920.72;6128072;23;20761;-87
2024/04/18 10:00:35;;;;;;;3.70;3.40;;;;;;;10.07;67.57;94997.88;6129355;23;20239;-88
2024/04/18 10:03:16;;;;;;;4.03;3.67;;;;;;;9.78;67.91;95003.19;6129677;23;20178;-87
2024/04/18 10:06:14;;;;;;;4.70;4.30;;;;;;;9.51;71.01;95122.94;6129323;23;20203;-88
2024/04/18 10:11:38;;;;;;;5.00;4.60;;;;;;;9.25;71.51;95154.25;6124218;23;20199;-86
2024/04/18 10:42:10;;;;;;;4.40;4.00;;;;;;;9.38;73.87;95248.69;5708733;25;20330;-87
2024/04/18 10:45:12;;;;;;;4.47;4.07;;;;;;;9.32;74.21;95266.41;5689579;25;20187;-85
2024/04/18 10:50:50;;;;;;;6.90;6.13;;;;;;;9.06;72.46;95214.66;5808872;24;20183;-85
2024/04/18 10:53:23;;;;;;;4.17;3.77;;;;;;;9.01;73.12;95214.41;5917906;23;20202;-86
2024/04/18 10:56:06;;;;;;;;;;;;;;;;;;;;;
2024/04/18 11:10:59;;;;;;;3.10;2.70;;;;;;;9.49;67.38;94992.06;6153630;23;20199;-87
2024/04/18 11:17:49;;;;;;;2.57;2.27;;;;;;;9.41;63.42;94840.63;6002206;23;20190;-89
2024/04/18 11:20:16;;;;;;;4.47;2.87;;;;;;;9.55;61.98;94754.94;5980389;24;20219;-88
2024/04/18 11:29:29;;;;;;;2.30;2.10;;;;;;;9.83;61.42;94718.06;5976933;24;20173;-86
2024/04/18 11:32:23;;;;;;;3.27;2.17;;;;;;;9.84;63.59;94851.56;5994747;23;20198;-87
2024/04/18 11:34:56;;;;;;;3.27;2.97;;;;;;;9.70;63.27;94842.19;6011078;23;20228;-86
2024/04/18 11:37:43;;;;;;;3.77;3.47;;;;;;;9.59;65.73;94963.50;6114636;23;20176;-86
2024/04/18 11:40:17;;;;;;;13.50;11.10;;;;;;;9.47;67.59;95042.84;6129679;23;20160;-89
2024/04/18 11:46:07;;;;;;;4.80;4.40;;;;;;;9.21;69.27;95117.06;6089382;23;20205;-87
2024/04/18 11:57:49;;;;;;;4.40;3.80;;;;;;;10.10;69.54;95164.69;6155019;23;20175;-87
2024/04/18 12:00:42;;;;;;;5.13;4.37;;;;;;;10.13;69.90;95171.25;6146969;23;20238;-85
2024/04/18 12:03:36;;;;;;;4.00;3.70;;;;;;;9.94;68.11;95088.59;6092218;23;20255;-85
2024/04/18 12:06:21;;;;;;;4.07;3.67;;;;;;;9.86;68.22;95080.19;6128988;23;20240;-87
2024/04/18 12:12:09;;;;;;;5.07;4.03;;;;;;;9.66;70.81;95195.66;6062957;23;20212;-87
2024/04/18 12:15:15;;;;;;;4.30;3.90;;;;;;;9.49;69.89;95163.44;6065767;23;20165;-86
2024/04/18 12:21:26;;;;;;;5.10;3.57;;;;;;;9.09;70.83;95203.22;6095847;23;20167;-87
2024/04/18 12:24:04;;;;;;;4.63;3.57;;;;;;;8.98;72.24;95241.22;6095597;23;20199;-87
2024/04/18 12:26:36;;;;;;;4.33;3.70;;;;;;;8.96;72.79;95256.00;6114242;23;20258;-86
2024/04/18 12:29:11;;;;;;;5.90;3.87;;;;;;;8.95;73.13;95281.84;6129196;23;20171;-88
2024/04/18 12:35:07;;;;;;;4.10;3.70;;;;;;;8.66;75.98;95375.72;6023154;23;20191;-86
2024/04/18 12:38:26;;;;;;;3.57;3.27;;;;;;;8.48;73.50;95300.00;6128614;23;20163;-87
2024/04/18 12:41:05;;;;;;;13.53;10.90;;;;;;;8.17;72.31;95252.06;6130316;23;20352;-89
2024/04/18 12:43:45;;;;;;;4.30;3.90;;;;;;;7.97;74.02;95308.09;6126684;23;20192;-89
2024/04/18 12:46:26;;;;;;;3.50;3.20;;;;;;;7.82;73.69;95288.47;6127485;23;20241;-88
2024/04/18 12:49:12;;;;;;;3.20;2.90;;;;;;;7.73;73.54;95281.75;6128144;23;20163;-86
2024/04/18 12:51:41;;;;;;;3.30;3.00;;;;;;;7.76;73.62;95294.25;6128020;23;20164;-86
2024/04/18 12:54:23;;;;;;;3.27;2.97;;;;;;;7.83;74.32;95337.00;6127481;23;20267;-88
2024/04/18 12:57:08;;;;;;;3.43;3.00;;;;;;;7.96;72.44;95270.63;6128459;23;20616;-84
2024/04/18 13:02:26;;;;;;;2.80;2.60;;;;;;;8.26;72.89;95293.88;6126674;23;20590;-86
2024/04/18 13:05:13;;;;;;;3.80;2.63;;;;;;;8.48;73.58;95317.94;6127464;23;20203;-86
2024/04/18 13:07:41;;;;;;;3.20;2.53;;;;;;;8.74;74.08;95356.94;6124701;23;20189;-86
2024/04/18 13:13:02;;;;;;;5.20;3.73;;;;;;;8.98;68.22;95114.63;6128924;23;20191;-89
2024/04/18 13:15:34;;;;;;;2.53;2.33;;;;;;;8.93;68.57;95138.25;6132195;23;20282;-87
2024/04/18 13:18:30;;;;;;;2.43;2.23;;;;;;;8.94;68.36;95105.66;6131579;23;20170;-85
2024/04/18 13:21:01;;;;;;;2.80;2.00;;;;;;;8.89;68.80;95133.63;6126103;23;20180;-87
2024/04/18 13:23:31;;;;;;;2.50;2.30;;;;;;;8.90;69.04;95146.28;6130596;23;20172;-86
2024/04/18 13:26:03;;;;;;;2.20;2.00;;;;;;;9.04;69.00;95156.75;6130068;23;20559;-85
2024/04/18 13:29:13;;;;;;;2.87;1.97;;;;;;;9.27;68.79;95162.56;6130598;23;20168;-86
2024/04/18 13:32:06;;;;;;;2.37;2.17;;;;;;;9.29;66.96;95065.59;6127344;23;20667;-87
2024/04/18 13:37:18;;;;;;;2.77;2.00;;;;;;;9.54;64.56;94952.97;6129376;23;20400;-88
2024/04/18 13:40:37;;;;;;;2.40;2.03;;;;;;;9.74;63.14;94907.66;6130882;23;20188;-88
2024/04/18 13:46:46;;;;;;;2.53;2.20;;;;;;;10.52;61.54;94836.25;6129722;23;20199;-87
2024/04/18 13:52:52;;;;;;;3.80;2.40;;;;;;;10.91;59.54;94746.19;6102869;23;20227;-87
2024/04/18 13:55:34;;;;;;;5.67;4.83;;;;;;;11.07;60.21;94773.31;6130294;23;20472;-87
2024/04/18 13:58:34;;;;;;;5.60;3.17;;;;;;;11.17;61.10;94816.69;6129202;23;20182;-86
2024/04/18 14:01:09;;;;;;;3.10;2.80;;;;;;;11.30;60.31;94781.41;6130542;23;20195;-88
2024/04/18 14:03:36;;;;;;;5.60;2.97;;;;;;;11.28;56.62;94587.56;6130705;23;20181;-86
2024/04/18 14:06:45;;;;;;;3.00;2.80;;;;;;;11.34;57.56;94615.09;6144477;23;20237;-88
2024/04/18 14:24:03;;;;;;;3.40;3.10;;;;;;;11.96;57.62;94703.88;6152254;23;20226;-87
2024/04/18 14:26:36;;;;;;;3.10;2.80;;;;;;;11.96;57.10;94679.88;6162235;23;20701;-85
2024/04/18 14:29:43;;;;;;;5.63;3.07;;;;;;;12.16;56.88;94662.47;6162448;23;20171;-89
2024/04/18 14:32:48;;;;;;;3.17;2.90;;;;;;;12.05;57.48;94701.84;6162181;23;20155;-86
2024/04/18 14:35:22;;;;;;;2.87;2.67;;;;;;;12.24;57.42;94692.41;6149773;23;20720;-86
2024/04/18 14:37:59;;;;;;;3.00;2.40;;;;;;;12.26;55.01;94600.09;6159046;23;20190;-87
2024/04/18 14:40:27;;;;;;;3.30;2.70;;;;;;;12.18;55.60;94606.28;6157825;23;20590;-88
2024/04/18 14:46:42;;;;;;;12.80;9.40;;;;;;;11.50;56.66;94644.75;6040138;23;20203;-86
2024/04/18 14:52:57;;;;;;;2.70;2.50;;;;;;;11.10;58.02;94715.44;6095898;23;20172;-88
2024/04/18 14:55:27;;;;;;;3.33;2.80;;;;;;;10.75;58.86;94756.88;6072573;23;20211;-87
2024/04/18 14:58:26;;;;;;;2.60;2.40;;;;;;;10.53;59.99;94807.72;6096069;23;20191;-88
2024/04/18 15:01:19;;;;;;;2.60;2.40;;;;;;;10.32;61.99;94934.75;6090053;23;20180;-89
2024/04/18 15:03:56;;;;;;;3.10;2.53;;;;;;;10.13;61.77;94919.97;6094593;23;20659;-88
2024/04/18 15:07:32;;;;;;;2.50;2.00;;;;;;;9.76;61.85;94915.19;6097144;23;20630;-86
2024/04/18 15:13:08;;;;;;;;;;;;;;;;;;;;;
2024/04/18 15:15:42;;;;;;;2.00;1.83;;;;;;;8.91;66.33;95147.09;6158232;23;20265;-89
2024/04/18 15:19:06;;;;;;;2.70;1.80;;;;;;;8.75;68.72;95273.81;6157346;23;20215;-86
2024/04/18 15:25:17;;;;;;;2.47;2.27;;;;;;;8.00;70.86;95330.03;6101456;23;20742;-87
2024/04/18 15:28:08;;;;;;;2.13;1.97;;;;;;;7.71;73.44;95427.19;6156640;23;20218;-87
2024/04/18 15:31:07;;;;;;;3.30;2.70;;;;;;;7.57;76.08;95492.69;6149314;23;20186;-87
2024/04/18 15:40:54;;;;;;;2.70;2.50;;;;;;;7.09;83.16;95635.06;6112819;23;20261;-86
2024/04/18 15:44:17;;;;;;;3.23;2.93;;;;;;;7.30;80.77;95585.22;6156743;23;20254;-85
2024/04/18 15:46:49;;;;;;;2.60;2.40;;;;;;;7.40;79.85;95565.38;6072068;23;20215;-86
2024/04/18 15:49:47;;;;;;;2.87;2.67;;;;;;;7.34;79.93;95566.00;6158267;23;20651;-85
2024/04/18 15:52:43;;;;;;;6.37;4.40;;;;;;;7.36;81.61;95618.66;6141318;23;20259;-88
2024/04/18 16:02:17;;;;;;;6.57;5.90;;;;;;;7.36;86.54;95733.91;6065527;23;20841;-88
2024/04/18 16:05:33;;;;;;;4.57;4.10;;;;;;;7.42;87.85;95765.81;6112986;23;20175;-87
2024/04/18 16:08:02;;;;;;;4.07;3.30;;;;;;;7.38;90.01;95806.28;6156197;23;20174;-87
2024/04/18 16:14:04;;;;;;;4.23;3.10;;;;;;;7.53;89.91;95803.97;6108314;23;20198;-88
2024/04/18 16:19:38;;;;;;;3.43;3.13;;;;;;;7.62;91.03;95826.94;6120227;23;20175;-88
2024/04/18 16:57:12;;;;;;;6.80;5.57;;;;;;;8.58;77.67;95552.84;6064743;23;20329;-87
2024/04/18 16:59:39;;;;;;;8.70;7.67;;;;;;;8.60;78.88;95592.00;6153424;23;20183;-89
2024/04/18 17:03:15;;;;;;;;;;;;;;;;;;;;;
2024/04/18 17:09:33;;;;;;;4.67;3.50;;;;;;;8.52;80.01;95634.81;6080205;23;20214;-88
2024/04/18 17:46:29;;;;;;;2.90;2.60;;;;;;;7.75;80.24;95654.78;6067229;23;20227;-86
2024/04/18 17:49:21;;;;;;;3.03;2.70;;;;;;;7.74;80.19;95653.19;6018889;23;20243;-88
2024/04/18 17:58:13;;;;;;;3.57;3.23;;;;;;;7.69;81.75;95709.25;5981976;24;20195;-86
2024/04/18 18:18:08;;;;;;;5.67;4.77;;;;;;;7.58;85.34;95822.25;6140682;23;20183;-89
2024/04/18 18:24:29;;;;;;;8.67;7.63;;;;;;;7.28;88.88;95882.44;6008560;23;20182;-86
2024/04/18 18:27:18;;;;;;;5.70;5.10;;;;;;;7.42;86.61;95847.78;6022181;23;20252;-87
2024/04/18 18:30:40;;;;;;;;;;;;;;;;;;;;;
2024/04/18 18:33:56;;;;;;;4.97;4.47;;;;;;;7.45;84.89;95814.97;5978942;24;20171;-86
2024/04/18 18:40:53;;;;;;;;;;;;;;;;;;;;;
2024/04/18 18:47:25;;;;;;;4.67;4.23;;;;;;;7.38;84.28;95826.78;6117898;23;20214;-88
2024/04/18 18:54:12;;;;;;;15.10;13.50;;;;;;;7.40;83.39;95827.44;6104648;23;20178;-89
2024/04/18 19:24:16;;;;;;;4.90;4.40;;;;;;;7.21;86.14;95909.56;5879705;23;20182;-88
2024/04/18 19:37:05;;;;;;;;;;;;;;;;;;;;;
2024/04/18 19:40:09;;;;;;;4.87;4.37;;;;;;;7.14;85.24;95886.28;6159657;23;20631;-87
2024/04/18 19:46:38;;;;;;;;;;;;;;;;;;;;;
2024/04/18 19:52:38;;;;;;;4.97;4.27;;;;;;;7.00;85.17;95904.75;6045263;23;20177;-86
2024/04/18 19:55:49;;;;;;;4.93;4.43;;;;;;;6.94;86.16;95928.34;6139101;23;20211;-89
2024/04/18 20:05:09;;;;;;;5.40;4.67;;;;;;;6.85;86.24;95939.47;6000271;23;20183;-86
2024/04/18 20:11:03;;;;;;;5.03;4.53;;;;;;;6.90;86.05;95915.06;6097180;23;20172;-88
2024/04/18 20:14:19;;;;;;;5.00;4.50;;;;;;;6.86;85.79;95920.63;6094982;23;20179;-85
2024/04/18 20:24:22;;;;;;;5.00;4.10;;;;;;;6.70;85.68;95916.16;6049853;23;20193;-86
2024/04/18 20:27:34;;;;;;;5.13;4.30;;;;;;;6.58;86.00;95924.94;6157643;23;20246;-87
2024/04/18 20:41:24;;;;;;;7.27;5.57;;;;;;;6.75;85.10;95908.00;6005120;23;20207;-88
2024/04/18 20:44:35;;;;;;;5.80;5.17;;;;;;;6.76;84.91;95905.31;6051647;23;20176;-86
2024/04/18 20:51:15;;;;;;;4.97;4.47;;;;;;;6.68;85.19;95912.91;5961638;23;20215;-87
2024/04/18 20:54:23;;;;;;;6.10;5.07;;;;;;;6.69;85.44;95921.41;6086465;23;20254;-88
2024/04/18 21:03:29;;;;;;;5.27;4.77;;;;;;;6.61;85.55;95923.88;6087470;23;20187;-86
2024/04/18 21:06:04;;;;;;;4.57;4.17;;;;;;;6.48;85.72;95921.66;6158404;23;20707;-87
2024/04/18 21:08:56;;;;;;;4.33;3.93;;;;;;;6.50;86.11;95925.69;6158172;23;20190;-87
2024/04/18 21:11:38;;;;;;;4.73;4.27;;;;;;;6.53;85.91;95925.41;6158569;23;20210;-89
2024/04/18 21:17:19;;;;;;;4.77;4.33;;;;;;;6.50;85.22;95915.44;6127616;23;20209;-86
2024/04/18 21:20:19;;;;;;;;;;;;;;;;;;;;;
2024/04/18 21:22:53;;;;;;;4.63;4.20;;;;;;;6.52;84.46;95902.53;6158100;23;20171;-86
2024/04/18 21:25:36;;;;;;;4.10;3.70;;;;;;;6.45;84.54;95888.69;6157754;23;20198;-86
2024/04/18 21:31:54;;;;;;;;;;;;;;;;;;;;;
2024/04/18 21:34:29;;;;;;;5.00;3.90;;;;;;;6.48;83.93;95898.63;6156278;23;20198;-87
2024/04/18 21:37:14;;;;;;;;;;;;;;;;;;;;;
2024/04/18 21:50:37;;;;;;;4.23;3.53;;;;;;;6.41;85.78;95967.44;5993023;23;20188;-87
2024/04/18 21:53:07;;;;;;;3.97;3.57;;;;;;;6.33;86.60;95969.13;6126175;23;20178;-86
2024/04/18 22:11:12;;;;;;;3.40;3.10;;;;;;;6.41;86.34;95959.78;6159911;23;20242;-87
2024/04/18 22:14:28;;;;;;;3.53;3.23;;;;;;;6.42;85.99;95950.34;6159928;23;20250;-87
2024/04/18 22:17:13;;;;;;;;;;;;;;;;;;;;;
2024/04/18 22:24:20;;;;;;;3.90;3.53;;;;;;;6.43;87.06;95977.53;6126882;23;20238;-87
2024/04/18 22:44:04;;;;;;;3.60;3.30;;;;;;;6.27;85.89;95934.66;6115074;23;20168;-87
2024/04/18 22:57:21;;;;;;;3.50;2.93;;;;;;;6.08;87.34;95961.13;5818507;24;20271;-85
2024/04/18 23:00:37;;;;;;;4.00;3.07;;;;;;;6.16;87.70;95980.84;5897849;24;20301;-87
2024/04/18 23:06:20;;;;;;;4.13;3.20;;;;;;;6.23;87.50;95964.81;6082250;23;20195;-88
2024/04/18 23:09:03;;;;;;;3.97;3.57;;;;;;;6.21;87.12;95942.91;6131029;23;20171;-86
2024/04/18 23:15:33;;;;;;;;;;;;;;;;;;;;;
2024/04/18 23:18:48;;;;;;;;;;;;;;;;;;;;;
2024/04/18 23:25:17;;;;;;;3.17;2.87;;;;;;;6.32;87.65;95963.19;6092582;23;20172;-89
2024/04/18 23:31:38;;;;;;;3.30;3.00;;;;;;;6.45;85.73;95914.25;6093038;23;20172;-88
2024/04/18 23:37:45;;;;;;;3.47;2.87;;;;;;;6.51;85.26;95906.84;6123482;23;20179;-85
2024/04/18 23:40:15;;;;;;;3.13;2.83;;;;;;;6.51;86.16;95929.06;6107136;23;20175;-87
2024/04/18 23:49:28;;;;;;;3.43;3.13;;;;;;;6.50;85.73;95937.66;6084543;23;20204;-87